createdAt,value
2022-12-20T00:00:51.589Z,2.16
2022-12-20T00:01:51.727Z,2.13
2022-12-20T00:02:51.744Z,2.13
2022-12-20T00:03:51.695Z,2.06
2022-12-20T00:04:51.765Z,2.10
2022-12-20T00:05:51.774Z,2.04
2022-12-20T00:06:51.818Z,2.16
2022-12-20T00:07:51.854Z,2.20
2022-12-20T00:08:51.892Z,2.27
2022-12-20T00:09:51.965Z,2.28
2022-12-20T00:10:51.970Z,2.31
2022-12-20T00:11:52.016Z,2.41
2022-12-20T00:12:52.056Z,2.38
2022-12-20T00:13:52.104Z,2.51
2022-12-20T00:14:52.167Z,2.53
2022-12-20T00:15:52.169Z,2.67
2022-12-20T00:16:52.219Z,2.61
2022-12-20T00:17:52.380Z,2.59
2022-12-20T00:18:52.298Z,2.69
2022-12-20T00:19:52.364Z,2.55
2022-12-20T00:20:53.335Z,2.59
2022-12-20T00:21:52.444Z,2.61
2022-12-20T00:22:52.450Z,2.52
2022-12-20T00:23:52.491Z,2.58
2022-12-20T00:24:52.529Z,2.66
2022-12-20T00:25:53.057Z,2.66
2022-12-20T00:26:53.336Z,2.53
2022-12-20T00:27:52.653Z,2.59
2022-12-20T00:28:52.689Z,2.58
2022-12-20T00:29:52.769Z,2.61
2022-12-20T00:30:53.524Z,2.51
2022-12-20T00:31:52.952Z,2.46
2022-12-20T00:32:53.824Z,2.56
2022-12-20T00:33:53.551Z,2.58
2022-12-20T00:34:53.550Z,2.58
2022-12-20T00:35:53.828Z,2.48
2022-12-20T00:36:53.555Z,2.64
2022-12-20T00:37:53.056Z,2.66
2022-12-20T00:38:53.115Z,2.56
2022-12-20T00:39:53.834Z,2.66
2022-12-20T00:40:53.172Z,2.64
2022-12-20T00:41:53.268Z,2.69
2022-12-20T00:42:53.255Z,2.67
2022-12-20T00:43:53.333Z,2.73
2022-12-20T00:44:53.334Z,2.69
2022-12-20T00:45:54.326Z,2.67
2022-12-20T00:46:53.456Z,2.70
2022-12-20T00:47:53.479Z,2.70
2022-12-20T00:48:54.330Z,2.70
2022-12-20T00:49:53.549Z,2.58
2022-12-20T00:50:54.333Z,2.63
2022-12-20T00:51:53.642Z,2.69
2022-12-20T00:52:54.340Z,2.63
2022-12-20T00:53:54.335Z,2.58
2022-12-20T00:54:53.749Z,2.58
2022-12-20T00:55:54.328Z,2.67
2022-12-20T00:56:53.856Z,2.66
2022-12-20T00:57:54.842Z,2.59
2022-12-20T00:58:54.835Z,2.70
2022-12-20T00:59:53.938Z,2.67
2022-12-20T01:00:56.502Z,2.74
2022-12-20T01:01:54.218Z,2.76
2022-12-20T01:02:54.173Z,2.71
2022-12-20T01:03:54.152Z,2.71
2022-12-20T01:04:54.833Z,2.73
2022-12-20T01:05:56.888Z,2.71
2022-12-20T01:06:54.257Z,2.70
2022-12-20T01:07:54.257Z,2.77
2022-12-20T01:08:54.316Z,2.84
2022-12-20T01:09:55.325Z,2.77
2022-12-20T01:10:55.332Z,2.79
2022-12-20T01:11:54.464Z,2.71
2022-12-20T01:12:54.458Z,2.77
2022-12-20T01:13:54.507Z,2.70
2022-12-20T01:14:54.553Z,2.73
2022-12-20T01:15:54.618Z,2.70
2022-12-20T01:16:54.705Z,2.70
2022-12-20T01:17:54.662Z,2.73
2022-12-20T01:18:54.774Z,2.73
2022-12-20T01:19:54.754Z,2.70
2022-12-20T01:20:55.326Z,2.76
2022-12-20T01:21:54.839Z,2.82
2022-12-20T01:22:54.863Z,2.81
2022-12-20T01:23:54.933Z,2.74
2022-12-20T01:24:55.835Z,2.66
2022-12-20T01:25:55.837Z,2.70
2022-12-20T01:26:55.031Z,2.77
2022-12-20T01:27:55.842Z,2.71
2022-12-20T01:28:55.162Z,2.64
2022-12-20T01:29:55.183Z,2.67
2022-12-20T01:30:55.187Z,2.66
2022-12-20T01:31:55.281Z,2.59
2022-12-20T01:32:55.274Z,2.73
2022-12-20T01:33:55.314Z,2.67
2022-12-20T01:34:55.370Z,2.69
2022-12-20T01:35:55.402Z,2.55
2022-12-20T01:36:55.454Z,2.61
2022-12-20T01:37:55.495Z,2.69
2022-12-20T01:38:56.334Z,2.59
2022-12-20T01:39:55.552Z,2.53
2022-12-20T01:40:56.335Z,2.51
2022-12-20T01:41:55.671Z,2.61
2022-12-20T01:42:55.671Z,2.48
2022-12-20T01:43:56.356Z,2.56
2022-12-20T01:44:56.333Z,2.58
2022-12-20T01:45:56.384Z,2.58
2022-12-20T01:46:55.872Z,2.52
2022-12-20T01:47:55.904Z,2.58
2022-12-20T01:48:55.922Z,2.53
2022-12-20T01:49:55.993Z,2.55
2022-12-20T01:50:56.830Z,2.51
2022-12-20T01:51:56.847Z,2.38
2022-12-20T01:52:56.077Z,2.38
2022-12-20T01:53:56.219Z,2.44
2022-12-20T01:54:56.188Z,2.33
2022-12-20T01:55:56.829Z,2.33
2022-12-20T01:56:56.826Z,2.31
2022-12-20T01:57:56.828Z,2.52
2022-12-20T01:58:56.840Z,2.53
2022-12-20T01:59:56.406Z,2.44
2022-12-20T02:00:57.424Z,2.45
2022-12-20T02:01:57.477Z,2.48
2022-12-20T02:02:57.459Z,2.49
2022-12-20T02:03:57.344Z,2.44
2022-12-20T02:04:56.608Z,2.44
2022-12-20T02:05:56.633Z,2.40
2022-12-20T02:06:56.684Z,2.33
2022-12-20T02:07:57.339Z,2.38
2022-12-20T02:08:57.335Z,2.38
2022-12-20T02:09:56.768Z,2.37
2022-12-20T02:10:56.816Z,2.31
2022-12-20T02:11:56.879Z,2.30
2022-12-20T02:12:56.919Z,2.33
2022-12-20T02:13:57.833Z,2.27
2022-12-20T02:14:57.829Z,2.33
2022-12-20T02:15:57.838Z,2.20
2022-12-20T02:16:57.906Z,2.26
2022-12-20T02:17:57.121Z,2.28
2022-12-20T02:18:57.828Z,2.27
2022-12-20T02:19:57.847Z,2.37
2022-12-20T02:20:57.254Z,2.35
2022-12-20T02:21:57.837Z,2.34
2022-12-20T02:22:57.345Z,2.46
2022-12-20T02:23:57.328Z,2.59
2022-12-20T02:24:58.339Z,2.46
2022-12-20T02:25:58.334Z,2.48
2022-12-20T02:26:58.339Z,2.58
2022-12-20T02:27:57.523Z,2.61
2022-12-20T02:28:58.340Z,2.66
2022-12-20T02:29:58.337Z,2.71
2022-12-20T02:30:58.330Z,2.70
2022-12-20T02:31:57.732Z,2.73
2022-12-20T02:32:57.706Z,2.76
2022-12-20T02:33:58.339Z,2.71
2022-12-20T02:34:57.781Z,2.70
2022-12-20T02:35:58.341Z,2.67
2022-12-20T02:36:57.892Z,2.69
2022-12-20T02:37:58.831Z,2.69
2022-12-20T02:38:58.829Z,2.81
2022-12-20T02:39:58.832Z,2.74
2022-12-20T02:40:58.848Z,2.79
2022-12-20T02:41:58.097Z,2.77
2022-12-20T02:42:58.836Z,2.88
2022-12-20T02:43:58.844Z,2.84
2022-12-20T02:44:58.836Z,2.87
2022-12-20T02:45:58.880Z,2.88
2022-12-20T02:46:58.288Z,2.92
2022-12-20T02:47:58.831Z,2.95
2022-12-20T02:48:59.340Z,2.95
2022-12-20T02:49:58.377Z,2.97
2022-12-20T02:50:58.468Z,2.92
2022-12-20T02:51:59.362Z,2.88
2022-12-20T02:52:59.331Z,2.87
2022-12-20T02:53:59.336Z,2.76
2022-12-20T02:54:58.623Z,2.84
2022-12-20T02:55:59.333Z,2.85
2022-12-20T02:56:59.334Z,2.87
2022-12-20T02:58:00.717Z,2.88
2022-12-20T02:58:58.748Z,2.92
2022-12-20T03:00:00.537Z,2.87
2022-12-20T03:00:59.414Z,2.87
2022-12-20T03:01:59.982Z,2.92
2022-12-20T03:02:58.983Z,3.00
2022-12-20T03:03:59.839Z,3.00
2022-12-20T03:04:59.033Z,3.02
2022-12-20T03:05:59.025Z,2.98
2022-12-20T03:06:59.836Z,2.97
2022-12-20T03:07:59.857Z,2.95
2022-12-20T03:08:59.159Z,3.03
2022-12-20T03:09:59.223Z,3.02
2022-12-20T03:10:59.837Z,3.00
2022-12-20T03:11:59.305Z,2.94
2022-12-20T03:12:59.832Z,2.94
2022-12-20T03:14:00.356Z,2.89
2022-12-20T03:14:59.396Z,2.74
2022-12-20T03:16:00.342Z,2.76
2022-12-20T03:16:59.633Z,2.79
2022-12-20T03:17:59.517Z,2.87
2022-12-20T03:18:59.586Z,2.76
2022-12-20T03:20:00.335Z,2.89
2022-12-20T03:21:00.358Z,2.81
2022-12-20T03:21:59.673Z,2.89
2022-12-20T03:23:00.335Z,2.79
2022-12-20T03:23:59.801Z,2.81
2022-12-20T03:24:59.792Z,2.82
2022-12-20T03:26:00.840Z,2.77
2022-12-20T03:26:59.885Z,2.79
2022-12-20T03:27:59.951Z,2.79
2022-12-20T03:29:00.845Z,2.84
2022-12-20T03:30:00.827Z,2.85
2022-12-20T03:31:00.161Z,2.82
2022-12-20T03:32:00.120Z,2.76
2022-12-20T03:33:00.115Z,2.76
2022-12-20T03:34:00.837Z,2.73
2022-12-20T03:35:00.214Z,2.73
2022-12-20T03:36:00.281Z,2.77
2022-12-20T03:37:00.325Z,2.79
2022-12-20T03:38:00.858Z,2.81
2022-12-20T03:39:01.343Z,2.77
2022-12-20T03:40:01.368Z,2.77
2022-12-20T03:41:01.341Z,2.79
2022-12-20T03:42:00.525Z,2.76
2022-12-20T03:43:01.334Z,2.76
2022-12-20T03:44:01.392Z,2.77
2022-12-20T03:45:01.351Z,2.81
2022-12-20T03:46:01.382Z,2.76
2022-12-20T03:47:00.725Z,2.79
2022-12-20T03:48:01.368Z,2.84
2022-12-20T03:49:00.790Z,2.76
2022-12-20T03:50:01.337Z,2.77
2022-12-20T03:51:00.881Z,2.79
2022-12-20T03:52:00.897Z,2.84
2022-12-20T03:53:00.943Z,2.77
2022-12-20T03:54:01.835Z,2.84
2022-12-20T03:55:01.021Z,2.77
2022-12-20T03:56:01.077Z,2.81
2022-12-20T03:57:01.123Z,2.76
2022-12-20T03:58:01.163Z,2.88
2022-12-20T03:59:01.187Z,2.79
2022-12-20T04:00:01.841Z,2.76
2022-12-20T04:01:01.450Z,2.71
2022-12-20T04:02:01.438Z,2.88
2022-12-20T04:03:01.477Z,2.79
2022-12-20T04:04:02.397Z,2.82
2022-12-20T04:05:01.457Z,2.88
2022-12-20T04:06:02.335Z,2.79
2022-12-20T04:07:02.346Z,2.87
2022-12-20T04:08:02.334Z,2.94
2022-12-20T04:09:02.335Z,2.95
2022-12-20T04:10:01.665Z,3.10
2022-12-20T04:11:02.338Z,3.10
2022-12-20T04:12:01.754Z,3.15
2022-12-20T04:13:01.758Z,3.12
2022-12-20T04:14:01.807Z,3.10
2022-12-20T04:15:01.843Z,3.07
2022-12-20T04:16:02.908Z,3.12
2022-12-20T04:17:01.951Z,3.10
2022-12-20T04:18:01.988Z,3.09
2022-12-20T04:19:02.030Z,3.09
2022-12-20T04:20:02.843Z,3.13
2022-12-20T04:21:02.104Z,3.15
2022-12-20T04:22:05.512Z,3.10
2022-12-20T04:23:02.183Z,3.03
2022-12-20T04:24:02.839Z,3.13
2022-12-20T04:25:02.252Z,3.02
2022-12-20T04:26:02.289Z,3.10
2022-12-20T04:27:02.844Z,3.16
2022-12-20T04:28:02.406Z,3.25
2022-12-20T04:29:02.418Z,3.31
2022-12-20T04:30:03.347Z,3.33
2022-12-20T04:31:02.555Z,3.31
2022-12-20T04:32:02.529Z,3.36
2022-12-20T04:33:02.576Z,3.36
2022-12-20T04:34:02.674Z,3.53
2022-12-20T04:35:03.336Z,3.71
2022-12-20T04:36:02.737Z,3.64
2022-12-20T04:37:02.740Z,3.67
2022-12-20T04:38:02.779Z,3.61
2022-12-20T04:39:03.339Z,3.62
2022-12-20T04:40:03.838Z,3.67
2022-12-20T04:41:02.941Z,3.57
2022-12-20T04:42:03.839Z,3.68
2022-12-20T04:43:03.849Z,3.61
2022-12-20T04:44:03.838Z,3.57
2022-12-20T04:45:03.082Z,3.57
2022-12-20T04:46:03.915Z,3.52
2022-12-20T04:47:03.213Z,3.67
2022-12-20T04:48:28.624Z,3.64
2022-12-20T04:49:03.851Z,3.72
2022-12-20T04:50:03.835Z,3.67
2022-12-20T04:51:03.303Z,3.65
2022-12-20T04:52:03.453Z,3.70
2022-12-20T04:53:04.347Z,3.70
2022-12-20T04:54:04.343Z,3.68
2022-12-20T04:55:03.469Z,3.75
2022-12-20T04:56:03.525Z,3.72
2022-12-20T05:02:11.897Z,3.68
2022-12-20T05:03:12.893Z,3.50
2022-12-20T05:16:39.906Z,3.15
2022-12-20T05:17:40.753Z,3.10
2022-12-20T05:18:46.465Z,3.15
2022-12-20T05:19:40.759Z,3.13
2022-12-20T05:20:39.941Z,3.07
2022-12-20T05:21:40.006Z,3.15
2022-12-20T05:22:40.044Z,3.12
2022-12-20T05:23:40.056Z,3.05
2022-12-20T05:24:40.107Z,3.07
2022-12-20T05:25:40.158Z,3.13
2022-12-20T05:26:40.172Z,3.02
2022-12-20T05:27:40.219Z,2.98
2022-12-20T05:28:40.251Z,2.95
2022-12-20T05:29:40.299Z,2.98
2022-12-20T05:30:40.381Z,3.00
2022-12-20T05:31:40.415Z,2.92
2022-12-20T05:32:41.252Z,3.00
2022-12-20T05:33:40.458Z,2.91
2022-12-20T05:34:40.522Z,3.02
2022-12-20T05:35:40.534Z,2.91
2022-12-20T05:36:40.601Z,2.97
2022-12-20T05:37:40.629Z,3.00
2022-12-20T05:38:40.663Z,3.07
2022-12-20T05:39:40.696Z,3.05
2022-12-20T05:40:40.732Z,2.95
2022-12-20T05:41:40.807Z,3.02
2022-12-20T05:42:40.815Z,3.05
2022-12-20T05:43:40.855Z,3.06
2022-12-20T05:44:40.928Z,2.95
2022-12-20T05:45:40.941Z,3.00
2022-12-20T05:46:41.044Z,3.03
2022-12-20T05:47:41.751Z,3.12
2022-12-20T05:48:41.086Z,3.10
2022-12-20T05:49:41.103Z,3.10
2022-12-20T05:50:41.147Z,3.12
2022-12-20T05:51:41.209Z,3.10
2022-12-20T05:52:41.219Z,3.18
2022-12-20T05:53:41.269Z,3.07
2022-12-20T05:54:41.305Z,3.10
2022-12-20T05:55:41.378Z,3.13
2022-12-20T05:56:41.388Z,3.10
2022-12-20T05:57:41.431Z,3.12
2022-12-20T05:58:41.469Z,3.03
2022-12-20T05:59:44.251Z,2.98
2022-12-20T06:00:41.566Z,2.95
2022-12-20T06:01:41.673Z,3.00
2022-12-20T06:02:41.807Z,2.98
2022-12-20T06:03:41.752Z,3.12
2022-12-20T06:04:41.709Z,3.16
2022-12-20T06:05:41.782Z,3.20
2022-12-20T06:06:41.787Z,3.33
2022-12-20T06:07:41.830Z,3.61
2022-12-20T06:08:41.934Z,3.72
2022-12-20T06:09:41.911Z,3.92
2022-12-20T06:10:42.071Z,3.89
2022-12-20T06:11:42.041Z,4.03
2022-12-20T06:12:42.034Z,4.06
2022-12-20T06:13:42.076Z,4.10
2022-12-20T06:14:42.132Z,4.04
2022-12-20T06:15:42.158Z,4.03
2022-12-20T06:16:42.277Z,3.97
2022-12-20T06:17:42.278Z,3.98
2022-12-20T06:18:42.284Z,3.83
2022-12-20T06:19:42.343Z,3.75
2022-12-20T06:20:42.364Z,3.60
2022-12-20T06:21:42.402Z,3.67
2022-12-20T06:22:42.466Z,3.70
2022-12-20T06:23:42.504Z,3.72
2022-12-20T06:24:47.920Z,3.79
2022-12-20T06:25:42.564Z,3.76
2022-12-20T06:26:42.612Z,3.72
2022-12-20T06:27:42.684Z,3.71
2022-12-20T06:28:43.259Z,3.64
2022-12-20T06:29:42.728Z,3.57
2022-12-20T06:30:42.773Z,3.65
2022-12-20T06:31:42.868Z,3.68
2022-12-20T06:32:42.887Z,3.62
2022-12-20T06:33:42.904Z,3.67
2022-12-20T06:34:43.749Z,3.67
2022-12-20T06:35:43.760Z,3.60
2022-12-20T06:36:43.050Z,3.61
2022-12-20T06:37:43.073Z,3.62
2022-12-20T06:38:43.200Z,3.65
2022-12-20T06:39:43.192Z,3.53
2022-12-20T06:40:43.199Z,3.70
2022-12-20T06:41:43.229Z,3.67
2022-12-20T06:42:43.293Z,3.58
2022-12-20T06:43:43.325Z,3.58
2022-12-20T06:44:43.364Z,3.60
2022-12-20T06:45:43.419Z,3.62
2022-12-20T06:46:43.516Z,3.53
2022-12-20T06:47:43.457Z,3.58
2022-12-20T06:48:43.506Z,3.65
2022-12-20T06:49:43.576Z,3.65
2022-12-20T06:50:43.619Z,3.54
2022-12-20T06:51:44.260Z,3.57
2022-12-20T06:52:43.661Z,3.58
2022-12-20T06:53:43.710Z,3.58
2022-12-20T06:54:43.748Z,3.68
2022-12-20T06:55:43.817Z,3.61
2022-12-20T06:56:43.823Z,3.64
2022-12-20T06:57:43.903Z,3.61
2022-12-20T06:58:44.752Z,3.70
2022-12-20T06:59:43.945Z,3.70
2022-12-20T07:00:44.034Z,3.61
2022-12-20T07:01:44.917Z,3.67
2022-12-20T07:02:44.198Z,3.60
2022-12-20T07:03:44.148Z,3.53
2022-12-20T07:04:44.173Z,3.36
2022-12-20T07:05:44.189Z,3.34
2022-12-20T07:06:44.236Z,3.28
2022-12-20T07:07:45.281Z,3.27
2022-12-20T07:08:44.312Z,3.21
2022-12-20T07:09:44.360Z,3.20
2022-12-20T07:10:44.422Z,3.16
2022-12-20T07:11:44.465Z,3.12
2022-12-20T07:12:48.211Z,3.13
2022-12-20T07:13:44.520Z,3.07
2022-12-20T07:14:44.563Z,3.16
2022-12-20T07:15:44.595Z,3.16
2022-12-20T07:16:45.341Z,3.15
2022-12-20T07:17:45.460Z,3.15
2022-12-20T07:18:44.727Z,3.15
2022-12-20T07:19:50.640Z,3.15
2022-12-20T07:20:46.450Z,3.12
2022-12-20T07:21:44.857Z,3.00
2022-12-20T07:22:45.758Z,3.05
2022-12-20T07:23:45.757Z,3.00
2022-12-20T07:24:44.996Z,3.00
2022-12-20T07:25:45.772Z,2.98
2022-12-20T07:26:45.765Z,2.97
2022-12-20T07:27:45.119Z,2.98
2022-12-20T07:28:45.769Z,2.95
2022-12-20T07:29:45.753Z,2.91
2022-12-20T07:30:45.755Z,2.98
2022-12-20T07:31:45.307Z,2.82
2022-12-20T07:32:46.253Z,2.73
2022-12-20T07:33:46.267Z,2.76
2022-12-20T07:34:45.383Z,2.88
2022-12-20T07:35:49.440Z,2.82
2022-12-20T07:36:45.492Z,2.98
2022-12-20T07:37:45.525Z,2.94
2022-12-20T07:38:45.532Z,2.94
2022-12-20T07:39:45.578Z,2.95
2022-12-20T07:40:46.264Z,2.89
2022-12-20T07:41:45.683Z,2.89
2022-12-20T07:42:48.891Z,2.92
2022-12-20T07:43:45.762Z,2.92
2022-12-20T07:44:45.816Z,3.00
2022-12-20T07:45:45.852Z,3.06
2022-12-20T07:46:46.008Z,2.97
2022-12-20T07:47:45.917Z,3.03
2022-12-20T07:48:45.960Z,3.02
2022-12-20T07:49:46.255Z,3.09
2022-12-20T07:50:46.753Z,3.09
2022-12-20T07:51:46.089Z,3.15
2022-12-20T07:52:46.109Z,3.18
2022-12-20T07:53:46.753Z,3.09
2022-12-20T07:54:46.214Z,3.15
2022-12-20T07:55:46.784Z,3.18
2022-12-20T07:56:46.307Z,3.18
2022-12-20T07:57:46.314Z,3.20
2022-12-20T07:58:46.360Z,3.20
2022-12-20T07:59:47.259Z,3.20
2022-12-20T08:00:47.261Z,3.20
2022-12-20T08:01:46.597Z,3.28
2022-12-20T08:02:47.457Z,3.27
2022-12-20T08:03:46.610Z,3.33
2022-12-20T08:04:46.602Z,3.39
2022-12-20T08:05:47.263Z,3.36
2022-12-20T08:06:46.720Z,3.43
2022-12-20T08:07:46.739Z,3.34
2022-12-20T08:08:46.795Z,3.31
2022-12-20T08:09:46.834Z,3.31
2022-12-20T08:10:47.771Z,3.36
2022-12-20T08:11:46.893Z,3.40
2022-12-20T08:12:47.763Z,3.50
2022-12-20T08:13:48.816Z,3.47
2022-12-20T08:14:47.047Z,3.60
2022-12-20T08:15:47.760Z,3.58
2022-12-20T08:27:05.625Z,3.88
2022-12-20T08:28:05.651Z,3.90
2022-12-20T08:29:12.253Z,3.82
2022-12-20T08:30:05.729Z,3.85
2022-12-20T08:31:06.818Z,3.79
2022-12-20T08:32:05.845Z,3.83
2022-12-20T08:33:14.311Z,3.92
2022-12-20T08:34:06.813Z,3.86
2022-12-20T08:35:06.813Z,3.92
2022-12-20T08:36:06.834Z,3.92
2022-12-20T08:37:12.409Z,4.00
2022-12-20T08:38:06.817Z,3.89
2022-12-20T08:39:06.124Z,3.97
2022-12-20T08:40:06.817Z,4.07
2022-12-20T08:41:06.829Z,4.01
2022-12-20T08:42:06.264Z,3.96
2022-12-20T08:43:10.387Z,4.03
2022-12-20T08:44:06.402Z,4.07
2022-12-20T08:45:07.310Z,4.12
2022-12-20T08:46:06.457Z,4.07
2022-12-20T08:47:06.480Z,4.19
2022-12-20T08:48:06.461Z,4.25
2022-12-20T08:49:06.533Z,4.19
2022-12-20T08:50:06.626Z,4.22
2022-12-20T08:51:07.426Z,4.16
2022-12-20T08:52:06.654Z,4.22
2022-12-20T08:53:06.668Z,4.26
2022-12-20T08:54:06.716Z,4.36
2022-12-20T08:55:06.798Z,4.29
2022-12-20T08:56:06.812Z,4.36
2022-12-20T08:57:06.900Z,4.29
2022-12-20T08:58:06.886Z,4.26
2022-12-20T08:59:06.988Z,4.33
2022-12-20T09:00:07.808Z,4.36
2022-12-20T09:01:07.396Z,4.37
2022-12-20T09:02:08.129Z,4.39
2022-12-20T09:03:07.385Z,4.46
2022-12-20T09:04:07.863Z,4.50
2022-12-20T09:05:07.801Z,4.51
2022-12-20T09:55:02.908Z,5.32
2022-12-20T09:55:54.833Z,5.34
2022-12-20T09:56:54.261Z,5.38
2022-12-20T09:57:54.291Z,5.43
2022-12-20T09:58:54.333Z,5.50
2022-12-20T09:59:54.371Z,5.53
2022-12-20T10:00:55.342Z,5.43
2022-12-20T10:01:54.492Z,5.45
2022-12-20T10:03:00.584Z,5.41
2022-12-20T10:03:55.565Z,5.41
2022-12-20T10:04:55.469Z,5.55
2022-12-20T10:05:54.753Z,5.49
2022-12-20T10:06:54.795Z,5.59
2022-12-20T10:07:55.371Z,5.50
2022-12-20T10:08:54.742Z,5.55
2022-12-20T10:09:55.356Z,5.60
2022-12-20T10:10:55.344Z,5.63
2022-12-20T10:11:54.841Z,5.60
2022-12-20T10:12:54.935Z,5.64
2022-12-20T10:13:55.827Z,5.71
2022-12-20T10:14:55.014Z,5.68
2022-12-20T10:15:55.155Z,5.75
2022-12-20T10:16:55.066Z,5.81
2022-12-20T10:17:55.125Z,5.85
2022-12-20T10:18:55.838Z,5.86
2022-12-20T10:19:55.208Z,5.78
2022-12-20T10:20:55.255Z,5.89
2022-12-20T10:21:55.827Z,5.91
2022-12-20T10:22:55.845Z,5.89
2022-12-20T10:23:55.393Z,5.89
2022-12-20T10:24:55.416Z,5.86
2022-12-20T10:25:55.496Z,5.86
2022-12-20T10:27:16.587Z,5.88
2022-12-20T10:27:55.545Z,5.86
2022-12-20T10:28:56.362Z,5.91
2022-12-20T10:29:56.365Z,5.89
2022-12-20T10:30:55.841Z,5.96
2022-12-20T10:31:56.342Z,5.92
2022-12-20T10:32:55.821Z,6.01
2022-12-20T10:33:56.396Z,6.00
2022-12-20T10:34:56.827Z,6.04
2022-12-20T10:35:56.848Z,6.06
2022-12-20T10:36:55.929Z,5.96
2022-12-20T10:38:07.011Z,5.92
2022-12-20T10:38:56.089Z,5.91
2022-12-20T10:39:56.998Z,5.88
2022-12-20T10:41:23.166Z,5.95
2022-12-20T10:41:56.839Z,5.83
2022-12-20T10:42:56.223Z,5.86
2022-12-20T10:43:56.833Z,5.89
2022-12-20T10:44:56.328Z,5.77
2022-12-20T10:45:56.339Z,5.74
2022-12-20T10:46:56.424Z,5.78
2022-12-20T10:47:56.418Z,5.75
2022-12-20T10:48:56.463Z,5.78
2022-12-20T10:49:56.548Z,5.88
2022-12-20T10:50:57.331Z,5.81
2022-12-20T10:51:57.346Z,5.81
2022-12-20T10:52:56.645Z,5.77
2022-12-20T10:53:56.688Z,5.81
2022-12-20T10:54:56.746Z,5.71
2022-12-20T10:55:56.776Z,5.73
2022-12-20T10:56:56.919Z,5.77
2022-12-20T10:57:56.911Z,5.70
2022-12-20T10:58:57.833Z,5.71
2022-12-20T10:59:56.940Z,5.67
2022-12-20T11:00:56.997Z,5.68
2022-12-20T11:01:57.224Z,5.67
2022-12-20T11:02:57.945Z,5.68
2022-12-20T11:03:57.189Z,5.67
2022-12-20T11:04:57.176Z,5.74
2022-12-20T11:05:57.850Z,5.66
2022-12-20T11:06:57.308Z,5.73
2022-12-20T11:09:00.997Z,5.68
2022-12-20T11:09:57.377Z,5.63
2022-12-20T11:10:57.441Z,5.53
2022-12-20T11:28:26.096Z,5.70
2022-12-20T11:29:27.017Z,5.60
2022-12-20T11:30:27.019Z,5.63
2022-12-20T11:31:27.043Z,5.66
2022-12-20T11:32:26.224Z,5.68
2022-12-20T11:33:27.455Z,5.70
2022-12-20T11:34:27.022Z,5.77
2022-12-20T11:35:26.385Z,5.70
2022-12-20T11:36:27.115Z,5.89
2022-12-20T11:37:26.463Z,5.85
2022-12-20T12:21:08.542Z,7.08
2022-12-20T12:22:03.623Z,7.09
2022-12-20T12:23:04.509Z,7.13
2022-12-20T12:24:04.504Z,7.13
2022-12-20T12:25:04.512Z,7.12
2022-12-20T12:26:04.499Z,7.19
2022-12-20T12:27:03.831Z,7.12
2022-12-20T12:28:03.877Z,7.02
2022-12-20T12:29:04.503Z,6.99
2022-12-20T12:30:04.501Z,6.97
2022-12-20T12:31:04.543Z,6.91
2022-12-20T12:32:04.199Z,7.05
2022-12-20T12:33:07.522Z,6.99
2022-12-20T12:34:04.097Z,7.02
2022-12-20T12:35:04.233Z,7.04
2022-12-20T12:36:05.005Z,7.07
2022-12-20T12:37:05.005Z,7.04
2022-12-20T12:38:05.007Z,7.05
2022-12-20T12:39:04.323Z,7.01
2022-12-20T12:40:04.438Z,7.08
2022-12-20T12:41:04.422Z,7.01
2022-12-20T12:42:05.009Z,7.04
2022-12-20T12:43:05.006Z,7.02
2022-12-20T12:44:04.554Z,7.02
2022-12-20T12:45:04.639Z,6.91
2022-12-20T12:46:08.415Z,6.90
2022-12-20T12:47:05.513Z,7.05
2022-12-20T12:48:05.504Z,7.04
2022-12-20T12:49:04.774Z,6.95
2022-12-20T12:50:04.831Z,6.90
2022-12-20T12:51:04.910Z,6.90
2022-12-20T12:52:04.901Z,6.94
2022-12-20T12:53:04.959Z,6.91
2022-12-20T12:54:04.999Z,6.94
2022-12-20T12:55:05.050Z,6.87
2022-12-20T12:56:34.451Z,6.90
2022-12-20T12:57:05.144Z,6.90
2022-12-20T12:58:05.180Z,6.84
2022-12-20T12:59:05.295Z,6.80
2022-12-20T13:00:07.036Z,6.83
2022-12-20T13:01:05.605Z,6.79
2022-12-20T13:02:05.453Z,6.86
2022-12-20T13:22:44.459Z,7.13
2022-12-20T13:23:44.469Z,7.12
2022-12-20T13:24:44.538Z,7.15
2022-12-20T13:25:45.534Z,7.15
2022-12-20T13:26:44.603Z,7.12
2022-12-20T13:27:44.641Z,7.08
2022-12-20T13:28:44.750Z,7.15
2022-12-20T13:29:44.766Z,7.13
2022-12-20T13:30:45.620Z,7.13
2022-12-20T13:31:49.575Z,7.19
2022-12-20T13:32:45.562Z,7.15
2022-12-20T13:33:44.940Z,7.16
2022-12-20T13:34:44.943Z,7.13
2022-12-20T13:35:44.990Z,7.04
2022-12-20T13:36:45.028Z,7.13
2022-12-20T13:37:49.489Z,7.13
2022-12-20T13:38:45.153Z,7.12
2022-12-20T13:39:46.028Z,7.09
2022-12-20T13:40:46.034Z,7.16
2022-12-20T13:41:46.038Z,7.12
2022-12-20T13:42:46.082Z,7.17
2022-12-20T13:43:45.382Z,7.13
2022-12-20T13:44:45.418Z,7.13
2022-12-20T13:45:46.074Z,7.13
2022-12-20T13:46:46.029Z,7.13
2022-12-20T13:47:46.030Z,7.13
2022-12-20T13:48:46.556Z,7.16
2022-12-20T13:49:45.648Z,7.23
2022-12-20T13:50:46.545Z,7.19
2022-12-20T13:51:46.540Z,7.12
2022-12-20T13:52:45.756Z,7.09
2022-12-20T13:53:45.813Z,7.15
2022-12-20T13:54:46.537Z,7.24
2022-12-20T13:55:45.895Z,7.23
2022-12-20T13:56:45.917Z,7.29
2022-12-20T13:57:45.999Z,7.22
2022-12-20T13:58:46.009Z,7.22
2022-12-20T13:59:46.061Z,7.27
2022-12-20T14:00:46.140Z,7.31
2022-12-20T14:01:47.125Z,7.40
2022-12-20T14:02:46.310Z,7.40
2022-12-20T14:03:47.101Z,7.27
2022-12-20T14:04:46.351Z,7.31
2022-12-20T14:05:46.368Z,7.15
2022-12-20T14:06:46.367Z,7.13
2022-12-20T14:07:47.043Z,7.20
2022-12-20T14:08:47.038Z,7.22
2022-12-20T14:09:47.039Z,7.20
2022-12-20T14:10:46.593Z,7.15
2022-12-20T14:11:47.542Z,7.09
2022-12-20T14:12:47.543Z,7.15
2022-12-20T14:13:46.700Z,7.04
2022-12-20T14:14:46.753Z,6.98
2022-12-20T14:15:47.557Z,6.97
2022-12-20T14:16:47.690Z,6.91
2022-12-20T14:17:46.890Z,6.91
2022-12-20T14:18:47.554Z,6.89
2022-12-20T14:19:47.542Z,6.80
2022-12-20T14:20:47.537Z,6.77
2022-12-20T14:21:47.060Z,6.76
2022-12-20T14:22:47.083Z,6.77
2022-12-20T14:23:47.175Z,6.73
2022-12-20T14:24:48.033Z,6.72
2022-12-20T14:25:48.041Z,6.51
2022-12-20T14:26:47.253Z,6.54
2022-12-20T14:27:48.039Z,6.53
2022-12-20T14:28:47.377Z,6.50
2022-12-20T14:29:48.036Z,6.48
2022-12-20T14:30:48.090Z,6.46
2022-12-20T14:31:47.476Z,6.35
2022-12-20T14:32:48.047Z,6.38
2022-12-20T14:33:47.577Z,6.35
2022-12-20T14:34:48.563Z,6.36
2022-12-20T14:35:47.682Z,6.29
2022-12-20T14:36:48.554Z,6.19
2022-12-20T14:37:48.546Z,6.11
2022-12-20T14:38:47.781Z,6.10
2022-12-20T14:39:47.813Z,6.10
2022-12-20T14:40:53.649Z,6.06
2022-12-20T14:41:47.902Z,6.04
2022-12-20T14:42:47.984Z,6.04
2022-12-20T14:43:48.537Z,5.98
2022-12-20T14:44:48.036Z,5.88
2022-12-20T14:45:48.154Z,5.96
2022-12-20T14:46:49.161Z,6.03
2022-12-20T14:47:48.190Z,6.00
2022-12-20T14:48:48.206Z,5.92
2022-12-20T14:49:48.283Z,5.92
2022-12-20T14:50:48.293Z,5.89
2022-12-20T14:51:48.351Z,5.96
2022-12-20T14:52:48.375Z,5.95
2022-12-20T14:53:48.431Z,5.96
2022-12-20T14:55:18.238Z,5.93
2022-12-20T14:55:48.517Z,5.93
2022-12-20T14:56:49.548Z,5.93
2022-12-20T14:57:48.617Z,5.92
2022-12-20T14:58:48.636Z,5.92
2022-12-20T14:59:48.687Z,5.86
2022-12-20T15:00:48.753Z,5.91
2022-12-20T15:01:48.847Z,5.92
2022-12-20T15:02:49.659Z,5.92
2022-12-20T15:03:48.912Z,5.92
2022-12-20T15:04:48.900Z,5.85
2022-12-20T15:05:49.031Z,5.88
2022-12-20T15:06:49.005Z,5.86
2022-12-20T15:07:49.028Z,5.83
2022-12-20T15:08:49.086Z,5.91
2022-12-20T15:09:49.116Z,5.88
2022-12-20T15:10:49.166Z,5.93
2022-12-20T15:11:49.239Z,5.91
2022-12-20T15:12:49.247Z,5.92
2022-12-20T15:13:49.325Z,5.86
2022-12-20T15:14:50.066Z,5.88
2022-12-20T15:15:49.475Z,5.83
2022-12-20T15:16:49.454Z,5.89
2022-12-20T15:17:49.505Z,5.86
2022-12-20T15:18:49.498Z,5.86
2022-12-20T15:19:49.591Z,5.91
2022-12-20T15:20:50.554Z,5.85
2022-12-20T15:21:49.643Z,5.77
2022-12-20T15:22:49.680Z,5.89
2022-12-20T15:23:49.727Z,5.86
2022-12-20T15:24:49.849Z,5.81
2022-12-20T15:25:49.804Z,5.74
2022-12-20T15:26:49.856Z,5.81
2022-12-20T15:27:49.896Z,5.78
2022-12-20T15:28:57.102Z,5.78
2022-12-20T15:29:50.043Z,5.81
2022-12-20T15:30:50.056Z,5.75
2022-12-20T15:31:50.246Z,5.77
2022-12-20T15:32:55.701Z,5.75
2022-12-20T15:33:50.144Z,5.74
2022-12-20T15:34:50.216Z,5.77
2022-12-20T15:35:50.236Z,5.73
2022-12-20T15:36:50.270Z,5.81
2022-12-20T15:37:50.328Z,5.83
2022-12-20T15:39:50.446Z,5.78
2022-12-20T15:40:50.464Z,5.81
2022-12-20T15:41:50.496Z,5.68
2022-12-20T15:42:50.578Z,5.73
2022-12-20T15:43:50.570Z,5.75
2022-12-20T15:44:50.625Z,5.74
2022-12-20T15:45:50.668Z,5.75
2022-12-20T15:46:50.734Z,5.71
2022-12-20T15:47:50.770Z,5.66
2022-12-20T15:48:50.798Z,5.68
2022-12-20T15:49:50.911Z,5.56
2022-12-20T15:50:50.879Z,5.56
2022-12-20T15:51:51.550Z,5.45
2022-12-20T15:52:50.969Z,5.35
2022-12-20T15:53:51.034Z,5.32
2022-12-20T15:54:51.080Z,5.27
2022-12-20T15:55:51.083Z,5.25
2022-12-20T15:56:51.129Z,5.28